sensor_id;sensor_type;location;lat;lon;timestamp;P1;durP1;ratioP1;P2;durP2;ratioP2
16314;SDS011;8266;52.150;4.768;2022-08-19T00:01:56;5.40;;;4.88;;
16314;SDS011;8266;52.150;4.768;2022-08-19T00:04:25;5.43;;;4.93;;
16314;SDS011;8266;52.150;4.768;2022-08-19T00:06:54;5.43;;;4.93;;
16314;SDS011;8266;52.150;4.768;2022-08-19T00:09:21;5.80;;;4.80;;
16314;SDS011;8266;52.150;4.768;2022-08-19T00:11:50;4.72;;;4.32;;
16314;SDS011;8266;52.150;4.768;2022-08-19T00:14:19;5.18;;;4.75;;
16314;SDS011;8266;52.150;4.768;2022-08-19T00:16:46;5.43;;;4.60;;
16314;SDS011;8266;52.150;4.768;2022-08-19T00:19:14;4.75;;;4.40;;
16314;SDS011;8266;52.150;4.768;2022-08-19T00:21:42;4.75;;;4.28;;
16314;SDS011;8266;52.150;4.768;2022-08-19T00:24:10;4.40;;;4.07;;
16314;SDS011;8266;52.150;4.768;2022-08-19T00:26:39;4.90;;;4.50;;
16314;SDS011;8266;52.150;4.768;2022-08-19T00:29:08;5.05;;;4.65;;
16314;SDS011;8266;52.150;4.768;2022-08-19T00:31:38;7.90;;;4.82;;
16314;SDS011;8266;52.150;4.768;2022-08-19T00:34:05;4.45;;;4.15;;
16314;SDS011;8266;52.150;4.768;2022-08-19T00:36:32;5.22;;;4.72;;
16314;SDS011;8266;52.150;4.768;2022-08-19T00:38:59;5.30;;;4.80;;
16314;SDS011;8266;52.150;4.768;2022-08-19T00:41:26;5.45;;;4.95;;
16314;SDS011;8266;52.150;4.768;2022-08-19T00:44:01;4.47;;;4.07;;
16314;SDS011;8266;52.150;4.768;2022-08-19T00:46:31;5.00;;;4.28;;
16314;SDS011;8266;52.150;4.768;2022-08-19T00:49:02;5.57;;;4.07;;
16314;SDS011;8266;52.150;4.768;2022-08-19T00:51:39;4.63;;;3.95;;
16314;SDS011;8266;52.150;4.768;2022-08-19T00:54:08;4.78;;;4.07;;
16314;SDS011;8266;52.150;4.768;2022-08-19T00:56:36;6.03;;;4.22;;
16314;SDS011;8266;52.150;4.768;2022-08-19T00:59:03;4.70;;;4.30;;
16314;SDS011;8266;52.150;4.768;2022-08-19T01:01:33;3.97;;;3.58;;
16314;SDS011;8266;52.150;4.768;2022-08-19T01:04:02;3.42;;;3.22;;
16314;SDS011;8266;52.150;4.768;2022-08-19T01:06:30;4.15;;;3.75;;
16314;SDS011;8266;52.150;4.768;2022-08-19T01:08:58;6.63;;;3.78;;
16314;SDS011;8266;52.150;4.768;2022-08-19T01:11:25;4.40;;;3.75;;
16314;SDS011;8266;52.150;4.768;2022-08-19T01:13:53;4.30;;;3.90;;
16314;SDS011;8266;52.150;4.768;2022-08-19T01:16:21;4.18;;;3.88;;
16314;SDS011;8266;52.150;4.768;2022-08-19T01:18:51;4.60;;;4.25;;
16314;SDS011;8266;52.150;4.768;2022-08-19T01:21:22;4.60;;;4.20;;
16314;SDS011;8266;52.150;4.768;2022-08-19T01:23:54;6.35;;;4.72;;
16314;SDS011;8266;52.150;4.768;2022-08-19T01:26:22;5.18;;;4.68;;
16314;SDS011;8266;52.150;4.768;2022-08-19T01:28:53;4.90;;;4.40;;
16314;SDS011;8266;52.150;4.768;2022-08-19T01:31:22;5.18;;;4.30;;
16314;SDS011;8266;52.150;4.768;2022-08-19T01:33:50;5.22;;;3.80;;
16314;SDS011;8266;52.150;4.768;2022-08-19T01:36:22;5.90;;;4.57;;
16314;SDS011;8266;52.150;4.768;2022-08-19T01:38:52;7.93;;;5.45;;
16314;SDS011;8266;52.150;4.768;2022-08-19T01:41:21;7.90;;;5.53;;
16314;SDS011;8266;52.150;4.768;2022-08-19T01:43:49;6.15;;;5.43;;
16314;SDS011;8266;52.150;4.768;2022-08-19T01:46:16;5.75;;;4.90;;
16314;SDS011;8266;52.150;4.768;2022-08-19T01:48:44;5.25;;;4.85;;
16314;SDS011;8266;52.150;4.768;2022-08-19T01:51:12;4.90;;;4.45;;
16314;SDS011;8266;52.150;4.768;2022-08-19T01:53:40;5.28;;;4.88;;
16314;SDS011;8266;52.150;4.768;2022-08-19T01:56:09;5.70;;;5.03;;
16314;SDS011;8266;52.150;4.768;2022-08-19T01:58:36;5.28;;;4.82;;
16314;SDS011;8266;52.150;4.768;2022-08-19T02:01:06;6.65;;;5.00;;
16314;SDS011;8266;52.150;4.768;2022-08-19T02:03:34;6.07;;;4.63;;
16314;SDS011;8266;52.150;4.768;2022-08-19T02:06:01;4.63;;;4.22;;
16314;SDS011;8266;52.150;4.768;2022-08-19T02:08:30;5.25;;;4.75;;
16314;SDS011;8266;52.150;4.768;2022-08-19T02:11:00;4.90;;;4.40;;
16314;SDS011;8266;52.150;4.768;2022-08-19T02:13:29;4.38;;;4.07;;
16314;SDS011;8266;52.150;4.768;2022-08-19T02:15:56;4.97;;;4.57;;
16314;SDS011;8266;52.150;4.768;2022-08-19T02:18:23;5.05;;;4.55;;
16314;SDS011;8266;52.150;4.768;2022-08-19T02:20:51;6.13;;;5.53;;
16314;SDS011;8266;52.150;4.768;2022-08-19T02:23:18;5.20;;;4.80;;
16314;SDS011;8266;52.150;4.768;2022-08-19T02:25:46;5.65;;;5.15;;
16314;SDS011;8266;52.150;4.768;2022-08-19T02:28:13;6.05;;;5.30;;
16314;SDS011;8266;52.150;4.768;2022-08-19T02:30:42;5.47;;;4.97;;
16314;SDS011;8266;52.150;4.768;2022-08-19T02:33:09;5.53;;;5.03;;
16314;SDS011;8266;52.150;4.768;2022-08-19T02:35:36;6.28;;;5.68;;
16314;SDS011;8266;52.150;4.768;2022-08-19T02:38:03;6.18;;;5.57;;
16314;SDS011;8266;52.150;4.768;2022-08-19T02:40:48;7.63;;;6.22;;
16314;SDS011;8266;52.150;4.768;2022-08-19T02:43:17;7.25;;;5.55;;
16314;SDS011;8266;52.150;4.768;2022-08-19T02:45:47;6.78;;;6.18;;
16314;SDS011;8266;52.150;4.768;2022-08-19T02:48:15;6.65;;;6.07;;
16314;SDS011;8266;52.150;4.768;2022-08-19T02:50:43;6.35;;;5.85;;
16314;SDS011;8266;52.150;4.768;2022-08-19T02:53:11;6.72;;;6.03;;
16314;SDS011;8266;52.150;4.768;2022-08-19T02:55:41;7.47;;;6.68;;
16314;SDS011;8266;52.150;4.768;2022-08-19T02:58:09;7.32;;;6.63;;
16314;SDS011;8266;52.150;4.768;2022-08-19T03:00:40;7.88;;;7.15;;
16314;SDS011;8266;52.150;4.768;2022-08-19T03:03:10;7.70;;;7.00;;
16314;SDS011;8266;52.150;4.768;2022-08-19T03:05:37;10.18;;;6.45;;
16314;SDS011;8266;52.150;4.768;2022-08-19T03:08:05;7.15;;;6.55;;
16314;SDS011;8266;52.150;4.768;2022-08-19T03:10:33;8.18;;;7.43;;
16314;SDS011;8266;52.150;4.768;2022-08-19T03:13:07;7.47;;;6.88;;
16314;SDS011;8266;52.150;4.768;2022-08-19T03:15:34;7.25;;;6.65;;
16314;SDS011;8266;52.150;4.768;2022-08-19T03:18:01;7.60;;;7.00;;
16314;SDS011;8266;52.150;4.768;2022-08-19T03:20:29;8.85;;;8.00;;
16314;SDS011;8266;52.150;4.768;2022-08-19T03:22:56;9.35;;;8.55;;
16314;SDS011;8266;52.150;4.768;2022-08-19T03:25:23;10.25;;;9.32;;
16314;SDS011;8266;52.150;4.768;2022-08-19T03:27:50;11.27;;;10.23;;
16314;SDS011;8266;52.150;4.768;2022-08-19T03:30:17;10.98;;;9.88;;
16314;SDS011;8266;52.150;4.768;2022-08-19T03:32:44;12.10;;;10.98;;
16314;SDS011;8266;52.150;4.768;2022-08-19T03:35:11;12.68;;;11.48;;
16314;SDS011;8266;52.150;4.768;2022-08-19T03:37:39;13.57;;;11.50;;
16314;SDS011;8266;52.150;4.768;2022-08-19T03:40:07;13.52;;;11.15;;
16314;SDS011;8266;52.150;4.768;2022-08-19T03:42:34;13.60;;;12.20;;
16314;SDS011;8266;52.150;4.768;2022-08-19T03:45:01;13.05;;;11.70;;
16314;SDS011;8266;52.150;4.768;2022-08-19T03:47:28;13.27;;;11.98;;
16314;SDS011;8266;52.150;4.768;2022-08-19T03:49:55;13.95;;;12.65;;
16314;SDS011;8266;52.150;4.768;2022-08-19T03:52:22;12.90;;;11.68;;
16314;SDS011;8266;52.150;4.768;2022-08-19T03:54:50;13.32;;;12.13;;
16314;SDS011;8266;52.150;4.768;2022-08-19T03:57:17;12.88;;;11.65;;
16314;SDS011;8266;52.150;4.768;2022-08-19T03:59:44;13.88;;;12.43;;
16314;SDS011;8266;52.150;4.768;2022-08-19T04:02:11;16.45;;;13.55;;
16314;SDS011;8266;52.150;4.768;2022-08-19T04:04:40;12.25;;;11.07;;
16314;SDS011;8266;52.150;4.768;2022-08-19T04:07:09;13.27;;;12.07;;
16314;SDS011;8266;52.150;4.768;2022-08-19T04:09:37;14.13;;;11.98;;
16314;SDS011;8266;52.150;4.768;2022-08-19T04:12:06;12.23;;;11.02;;
16314;SDS011;8266;52.150;4.768;2022-08-19T04:14:34;11.68;;;10.55;;
16314;SDS011;8266;52.150;4.768;2022-08-19T04:17:01;13.52;;;12.13;;
16314;SDS011;8266;52.150;4.768;2022-08-19T04:19:31;12.85;;;11.55;;
16314;SDS011;8266;52.150;4.768;2022-08-19T04:21:59;13.05;;;11.68;;
16314;SDS011;8266;52.150;4.768;2022-08-19T04:24:27;14.13;;;12.60;;
16314;SDS011;8266;52.150;4.768;2022-08-19T04:26:53;12.82;;;10.70;;
16314;SDS011;8266;52.150;4.768;2022-08-19T04:29:22;12.90;;;11.65;;
16314;SDS011;8266;52.150;4.768;2022-08-19T04:31:52;15.05;;;13.48;;
16314;SDS011;8266;52.150;4.768;2022-08-19T04:34:21;15.43;;;13.82;;
16314;SDS011;8266;52.150;4.768;2022-08-19T04:36:49;15.90;;;14.32;;
16314;SDS011;8266;52.150;4.768;2022-08-19T04:39:19;17.38;;;14.10;;
16314;SDS011;8266;52.150;4.768;2022-08-19T04:41:47;18.13;;;16.15;;
16314;SDS011;8266;52.150;4.768;2022-08-19T04:44:34;16.83;;;15.13;;
16314;SDS011;8266;52.150;4.768;2022-08-19T04:47:02;17.60;;;15.85;;
16314;SDS011;8266;52.150;4.768;2022-08-19T04:49:30;16.15;;;14.40;;
16314;SDS011;8266;52.150;4.768;2022-08-19T04:51:57;17.25;;;15.40;;
16314;SDS011;8266;52.150;4.768;2022-08-19T04:54:25;17.00;;;15.23;;
16314;SDS011;8266;52.150;4.768;2022-08-19T04:56:52;16.50;;;14.77;;
16314;SDS011;8266;52.150;4.768;2022-08-19T04:59:19;16.65;;;14.88;;
16314;SDS011;8266;52.150;4.768;2022-08-19T05:01:48;16.85;;;13.93;;
16314;SDS011;8266;52.150;4.768;2022-08-19T05:04:16;15.63;;;13.85;;
16314;SDS011;8266;52.150;4.768;2022-08-19T05:06:45;14.10;;;12.68;;
16314;SDS011;8266;52.150;4.768;2022-08-19T05:09:13;15.43;;;13.82;;
16314;SDS011;8266;52.150;4.768;2022-08-19T05:11:41;16.02;;;14.35;;
16314;SDS011;8266;52.150;4.768;2022-08-19T05:14:09;16.35;;;14.57;;
16314;SDS011;8266;52.150;4.768;2022-08-19T05:16:37;16.75;;;14.43;;
16314;SDS011;8266;52.150;4.768;2022-08-19T05:19:06;16.27;;;14.57;;
16314;SDS011;8266;52.150;4.768;2022-08-19T05:21:51;16.75;;;15.00;;
16314;SDS011;8266;52.150;4.768;2022-08-19T05:24:35;15.52;;;13.80;;
16314;SDS011;8266;52.150;4.768;2022-08-19T05:27:02;19.73;;;15.02;;
16314;SDS011;8266;52.150;4.768;2022-08-19T05:29:31;18.25;;;16.17;;
16314;SDS011;8266;52.150;4.768;2022-08-19T05:31:59;19.40;;;16.20;;
16314;SDS011;8266;52.150;4.768;2022-08-19T05:34:29;19.50;;;16.63;;
16314;SDS011;8266;52.150;4.768;2022-08-19T05:36:57;21.55;;;16.02;;
16314;SDS011;8266;52.150;4.768;2022-08-19T05:39:26;17.25;;;14.65;;
16314;SDS011;8266;52.150;4.768;2022-08-19T05:41:54;21.98;;;16.55;;
16314;SDS011;8266;52.150;4.768;2022-08-19T05:44:23;23.52;;;18.25;;
16314;SDS011;8266;52.150;4.768;2022-08-19T05:46:51;22.65;;;17.88;;
16314;SDS011;8266;52.150;4.768;2022-08-19T05:49:20;28.73;;;20.38;;
16314;SDS011;8266;52.150;4.768;2022-08-19T05:51:49;31.25;;;21.63;;
16314;SDS011;8266;52.150;4.768;2022-08-19T05:54:16;31.10;;;21.58;;
16314;SDS011;8266;52.150;4.768;2022-08-19T05:56:44;34.58;;;21.40;;
16314;SDS011;8266;52.150;4.768;2022-08-19T05:59:13;29.73;;;21.20;;
16314;SDS011;8266;52.150;4.768;2022-08-19T06:01:43;28.85;;;21.30;;
16314;SDS011;8266;52.150;4.768;2022-08-19T06:04:11;29.92;;;21.05;;
16314;SDS011;8266;52.150;4.768;2022-08-19T06:06:39;26.50;;;20.00;;
16314;SDS011;8266;52.150;4.768;2022-08-19T06:09:07;29.95;;;20.33;;
16314;SDS011;8266;52.150;4.768;2022-08-19T06:11:36;28.95;;;20.80;;
16314;SDS011;8266;52.150;4.768;2022-08-19T06:14:06;31.42;;;21.42;;
16314;SDS011;8266;52.150;4.768;2022-08-19T06:16:34;29.35;;;21.90;;
16314;SDS011;8266;52.150;4.768;2022-08-19T06:19:04;30.17;;;20.42;;
16314;SDS011;8266;52.150;4.768;2022-08-19T06:21:33;27.50;;;20.05;;
16314;SDS011;8266;52.150;4.768;2022-08-19T06:24:02;26.65;;;19.33;;
16314;SDS011;8266;52.150;4.768;2022-08-19T06:26:32;28.95;;;19.45;;
16314;SDS011;8266;52.150;4.768;2022-08-19T06:29:00;29.70;;;20.23;;
16314;SDS011;8266;52.150;4.768;2022-08-19T06:31:29;27.92;;;20.33;;
16314;SDS011;8266;52.150;4.768;2022-08-19T06:33:58;28.92;;;20.00;;
16314;SDS011;8266;52.150;4.768;2022-08-19T06:36:29;25.20;;;18.98;;
16314;SDS011;8266;52.150;4.768;2022-08-19T06:38:59;27.85;;;19.77;;
16314;SDS011;8266;52.150;4.768;2022-08-19T06:41:26;25.90;;;18.70;;
16314;SDS011;8266;52.150;4.768;2022-08-19T06:43:55;23.75;;;18.67;;
16314;SDS011;8266;52.150;4.768;2022-08-19T06:46:23;25.30;;;19.83;;
16314;SDS011;8266;52.150;4.768;2022-08-19T06:48:51;28.15;;;19.75;;
16314;SDS011;8266;52.150;4.768;2022-08-19T06:51:20;27.05;;;19.27;;
16314;SDS011;8266;52.150;4.768;2022-08-19T06:53:49;23.83;;;19.27;;
16314;SDS011;8266;52.150;4.768;2022-08-19T06:56:17;23.55;;;18.60;;
16314;SDS011;8266;52.150;4.768;2022-08-19T06:58:46;21.42;;;17.13;;
16314;SDS011;8266;52.150;4.768;2022-08-19T07:01:18;23.23;;;16.80;;
16314;SDS011;8266;52.150;4.768;2022-08-19T07:03:45;20.02;;;16.50;;
16314;SDS011;8266;52.150;4.768;2022-08-19T07:06:13;23.30;;;17.45;;
16314;SDS011;8266;52.150;4.768;2022-08-19T07:08:42;23.42;;;17.45;;
16314;SDS011;8266;52.150;4.768;2022-08-19T07:11:10;23.95;;;17.30;;
16314;SDS011;8266;52.150;4.768;2022-08-19T07:13:39;23.75;;;17.15;;
16314;SDS011;8266;52.150;4.768;2022-08-19T07:16:08;21.33;;;16.75;;
16314;SDS011;8266;52.150;4.768;2022-08-19T07:18:39;23.45;;;17.48;;
16314;SDS011;8266;52.150;4.768;2022-08-19T07:21:07;19.92;;;16.23;;
16314;SDS011;8266;52.150;4.768;2022-08-19T07:23:35;21.42;;;16.70;;
16314;SDS011;8266;52.150;4.768;2022-08-19T07:26:04;21.02;;;17.33;;
16314;SDS011;8266;52.150;4.768;2022-08-19T07:28:32;19.63;;;15.93;;
16314;SDS011;8266;52.150;4.768;2022-08-19T07:30:59;20.52;;;16.33;;
16314;SDS011;8266;52.150;4.768;2022-08-19T07:33:28;23.00;;;15.75;;
16314;SDS011;8266;52.150;4.768;2022-08-19T07:35:59;19.33;;;16.50;;
16314;SDS011;8266;52.150;4.768;2022-08-19T07:38:26;19.90;;;15.50;;
16314;SDS011;8266;52.150;4.768;2022-08-19T07:40:52;19.60;;;15.88;;
16314;SDS011;8266;52.150;4.768;2022-08-19T07:43:19;20.27;;;14.77;;
16314;SDS011;8266;52.150;4.768;2022-08-19T07:45:50;19.10;;;14.48;;
16314;SDS011;8266;52.150;4.768;2022-08-19T07:48:18;17.63;;;15.13;;
16314;SDS011;8266;52.150;4.768;2022-08-19T07:50:48;16.60;;;14.32;;
16314;SDS011;8266;52.150;4.768;2022-08-19T07:53:16;19.05;;;14.70;;
16314;SDS011;8266;52.150;4.768;2022-08-19T07:55:43;17.83;;;15.13;;
16314;SDS011;8266;52.150;4.768;2022-08-19T07:58:11;20.75;;;15.05;;
16314;SDS011;8266;52.150;4.768;2022-08-19T08:00:40;20.13;;;14.85;;
16314;SDS011;8266;52.150;4.768;2022-08-19T08:03:08;17.50;;;13.88;;
16314;SDS011;8266;52.150;4.768;2022-08-19T08:05:35;14.52;;;13.07;;
16314;SDS011;8266;52.150;4.768;2022-08-19T08:08:21;14.70;;;13.15;;
16314;SDS011;8266;52.150;4.768;2022-08-19T08:11:06;13.52;;;12.23;;
16314;SDS011;8266;52.150;4.768;2022-08-19T08:13:33;14.88;;;11.63;;
16314;SDS011;8266;52.150;4.768;2022-08-19T08:16:00;15.13;;;12.07;;
16314;SDS011;8266;52.150;4.768;2022-08-19T08:18:28;14.05;;;11.95;;
16314;SDS011;8266;52.150;4.768;2022-08-19T08:20:55;13.50;;;11.40;;
16314;SDS011;8266;52.150;4.768;2022-08-19T08:23:24;11.80;;;10.60;;
16314;SDS011;8266;52.150;4.768;2022-08-19T08:25:52;13.52;;;10.85;;
16314;SDS011;8266;52.150;4.768;2022-08-19T08:28:21;13.55;;;11.77;;
16314;SDS011;8266;52.150;4.768;2022-08-19T08:30:48;13.95;;;11.52;;
16314;SDS011;8266;52.150;4.768;2022-08-19T08:33:17;11.93;;;10.70;;
16314;SDS011;8266;52.150;4.768;2022-08-19T08:35:45;13.82;;;10.75;;
16314;SDS011;8266;52.150;4.768;2022-08-19T08:38:12;11.13;;;9.98;;
16314;SDS011;8266;52.150;4.768;2022-08-19T08:40:44;12.73;;;10.45;;
16314;SDS011;8266;52.150;4.768;2022-08-19T08:43:18;11.18;;;10.10;;
16314;SDS011;8266;52.150;4.768;2022-08-19T08:45:55;10.88;;;9.75;;
16314;SDS011;8266;52.150;4.768;2022-08-19T08:48:33;12.43;;;10.35;;
16314;SDS011;8266;52.150;4.768;2022-08-19T08:51:05;10.40;;;9.30;;
16314;SDS011;8266;52.150;4.768;2022-08-19T08:53:35;10.52;;;9.55;;
16314;SDS011;8266;52.150;4.768;2022-08-19T08:56:04;11.00;;;9.07;;
16314;SDS011;8266;52.150;4.768;2022-08-19T08:58:39;11.32;;;9.77;;
16314;SDS011;8266;52.150;4.768;2022-08-19T09:01:15;12.20;;;9.85;;
16314;SDS011;8266;52.150;4.768;2022-08-19T09:03:42;11.57;;;8.80;;
16314;SDS011;8266;52.150;4.768;2022-08-19T09:06:12;12.07;;;9.18;;
16314;SDS011;8266;52.150;4.768;2022-08-19T09:08:47;11.90;;;9.38;;
16314;SDS011;8266;52.150;4.768;2022-08-19T09:11:25;10.60;;;9.55;;
16314;SDS011;8266;52.150;4.768;2022-08-19T09:14:06;10.95;;;9.13;;
16314;SDS011;8266;52.150;4.768;2022-08-19T09:16:37;9.98;;;8.85;;
16314;SDS011;8266;52.150;4.768;2022-08-19T09:19:06;10.40;;;9.30;;
16314;SDS011;8266;52.150;4.768;2022-08-19T09:21:34;9.25;;;8.25;;
16314;SDS011;8266;52.150;4.768;2022-08-19T09:24:02;10.13;;;8.85;;
16314;SDS011;8266;52.150;4.768;2022-08-19T09:26:32;10.15;;;7.55;;
16314;SDS011;8266;52.150;4.768;2022-08-19T09:28:59;9.70;;;8.65;;
16314;SDS011;8266;52.150;4.768;2022-08-19T09:31:30;9.57;;;7.93;;
16314;SDS011;8266;52.150;4.768;2022-08-19T09:33:58;9.23;;;8.25;;
16314;SDS011;8266;52.150;4.768;2022-08-19T09:36:27;10.30;;;8.05;;
16314;SDS011;8266;52.150;4.768;2022-08-19T09:38:57;8.65;;;7.68;;
16314;SDS011;8266;52.150;4.768;2022-08-19T09:41:25;9.57;;;8.05;;
16314;SDS011;8266;52.150;4.768;2022-08-19T09:43:55;8.25;;;7.18;;
16314;SDS011;8266;52.150;4.768;2022-08-19T09:46:23;7.88;;;7.07;;
16314;SDS011;8266;52.150;4.768;2022-08-19T09:48:51;9.55;;;8.20;;
16314;SDS011;8266;52.150;4.768;2022-08-19T09:51:20;10.10;;;8.90;;
16314;SDS011;8266;52.150;4.768;2022-08-19T09:53:49;8.93;;;8.02;;
16314;SDS011;8266;52.150;4.768;2022-08-19T09:56:19;10.27;;;8.70;;
16314;SDS011;8266;52.150;4.768;2022-08-19T09:58:47;10.13;;;8.60;;
16314;SDS011;8266;52.150;4.768;2022-08-19T10:01:19;11.20;;;10.00;;
16314;SDS011;8266;52.150;4.768;2022-08-19T10:03:48;12.32;;;9.48;;
16314;SDS011;8266;52.150;4.768;2022-08-19T10:06:17;8.93;;;8.00;;
16314;SDS011;8266;52.150;4.768;2022-08-19T10:08:45;10.40;;;8.52;;
16314;SDS011;8266;52.150;4.768;2022-08-19T10:11:13;10.02;;;8.20;;
16314;SDS011;8266;52.150;4.768;2022-08-19T10:13:42;9.32;;;8.43;;
16314;SDS011;8266;52.150;4.768;2022-08-19T10:16:11;9.68;;;7.88;;
16314;SDS011;8266;52.150;4.768;2022-08-19T10:18:42;7.63;;;6.93;;
16314;SDS011;8266;52.150;4.768;2022-08-19T10:21:10;12.02;;;7.93;;
16314;SDS011;8266;52.150;4.768;2022-08-19T10:23:39;8.80;;;6.97;;
16314;SDS011;8266;52.150;4.768;2022-08-19T10:26:11;8.55;;;7.20;;
16314;SDS011;8266;52.150;4.768;2022-08-19T10:28:39;10.05;;;7.72;;
16314;SDS011;8266;52.150;4.768;2022-08-19T10:31:07;7.00;;;6.32;;
16314;SDS011;8266;52.150;4.768;2022-08-19T10:33:36;7.55;;;6.30;;
16314;SDS011;8266;52.150;4.768;2022-08-19T10:36:06;7.45;;;6.60;;
16314;SDS011;8266;52.150;4.768;2022-08-19T10:38:36;9.98;;;6.70;;
16314;SDS011;8266;52.150;4.768;2022-08-19T10:41:07;8.63;;;7.38;;
16314;SDS011;8266;52.150;4.768;2022-08-19T10:43:35;8.68;;;6.57;;
16314;SDS011;8266;52.150;4.768;2022-08-19T10:46:03;7.97;;;6.65;;
16314;SDS011;8266;52.150;4.768;2022-08-19T10:48:31;6.82;;;5.40;;
16314;SDS011;8266;52.150;4.768;2022-08-19T10:50:58;5.40;;;4.30;;
16314;SDS011;8266;52.150;4.768;2022-08-19T10:53:44;5.05;;;3.55;;
16314;SDS011;8266;52.150;4.768;2022-08-19T10:56:11;4.03;;;3.47;;
16314;SDS011;8266;52.150;4.768;2022-08-19T10:58:56;7.57;;;3.58;;
16314;SDS011;8266;52.150;4.768;2022-08-19T11:01:23;5.85;;;3.28;;
16314;SDS011;8266;52.150;4.768;2022-08-19T11:03:50;4.15;;;3.20;;
16314;SDS011;8266;52.150;4.768;2022-08-19T11:06:17;4.95;;;3.55;;
16314;SDS011;8266;52.150;4.768;2022-08-19T11:08:46;7.45;;;3.53;;
16314;SDS011;8266;52.150;4.768;2022-08-19T11:11:13;3.88;;;3.30;;
16314;SDS011;8266;52.150;4.768;2022-08-19T11:13:40;4.57;;;3.30;;
16314;SDS011;8266;52.150;4.768;2022-08-19T11:16:09;5.45;;;3.30;;
16314;SDS011;8266;52.150;4.768;2022-08-19T11:18:39;5.22;;;3.13;;
16314;SDS011;8266;52.150;4.768;2022-08-19T11:21:08;4.25;;;3.00;;
16314;SDS011;8266;52.150;4.768;2022-08-19T11:23:37;4.85;;;2.75;;
16314;SDS011;8266;52.150;4.768;2022-08-19T11:26:06;4.03;;;2.90;;
16314;SDS011;8266;52.150;4.768;2022-08-19T11:28:33;2.72;;;2.53;;
16314;SDS011;8266;52.150;4.768;2022-08-19T11:31:00;4.80;;;3.15;;
16314;SDS011;8266;52.150;4.768;2022-08-19T11:33:28;4.30;;;2.88;;
16314;SDS011;8266;52.150;4.768;2022-08-19T11:35:56;3.75;;;3.10;;
16314;SDS011;8266;52.150;4.768;2022-08-19T11:38:23;4.32;;;2.88;;
16314;SDS011;8266;52.150;4.768;2022-08-19T11:40:57;3.22;;;2.30;;
16314;SDS011;8266;52.150;4.768;2022-08-19T11:43:28;3.78;;;2.60;;
16314;SDS011;8266;52.150;4.768;2022-08-19T11:45:55;2.40;;;2.20;;
16314;SDS011;8266;52.150;4.768;2022-08-19T11:48:23;2.50;;;2.30;;
16314;SDS011;8266;52.150;4.768;2022-08-19T11:50:51;3.17;;;2.10;;
16314;SDS011;8266;52.150;4.768;2022-08-19T11:53:20;3.33;;;2.10;;
16314;SDS011;8266;52.150;4.768;2022-08-19T11:55:47;2.95;;;1.70;;
16314;SDS011;8266;52.150;4.768;2022-08-19T11:58:14;2.70;;;1.92;;
16314;SDS011;8266;52.150;4.768;2022-08-19T12:00:44;1.63;;;1.52;;
16314;SDS011;8266;52.150;4.768;2022-08-19T12:03:12;2.63;;;1.77;;
16314;SDS011;8266;52.150;4.768;2022-08-19T12:05:39;2.22;;;1.70;;
16314;SDS011;8266;52.150;4.768;2022-08-19T12:08:07;2.28;;;1.80;;
16314;SDS011;8266;52.150;4.768;2022-08-19T12:10:36;4.35;;;1.80;;
16314;SDS011;8266;52.150;4.768;2022-08-19T12:13:03;2.65;;;1.80;;
16314;SDS011;8266;52.150;4.768;2022-08-19T12:15:30;2.92;;;2.00;;
16314;SDS011;8266;52.150;4.768;2022-08-19T12:18:03;2.03;;;1.48;;
16314;SDS011;8266;52.150;4.768;2022-08-19T12:20:31;2.70;;;1.33;;
16314;SDS011;8266;52.150;4.768;2022-08-19T12:23:01;1.92;;;1.10;;
16314;SDS011;8266;52.150;4.768;2022-08-19T12:25:28;1.98;;;1.25;;
16314;SDS011;8266;52.150;4.768;2022-08-19T12:27:55;1.40;;;1.27;;
16314;SDS011;8266;52.150;4.768;2022-08-19T12:30:22;1.10;;;1.00;;
16314;SDS011;8266;52.150;4.768;2022-08-19T12:32:50;3.28;;;1.10;;
16314;SDS011;8266;52.150;4.768;2022-08-19T12:35:18;1.75;;;1.13;;
16314;SDS011;8266;52.150;4.768;2022-08-19T12:37:46;2.05;;;1.23;;
16314;SDS011;8266;52.150;4.768;2022-08-19T12:40:14;2.47;;;1.30;;
16314;SDS011;8266;52.150;4.768;2022-08-19T12:42:42;2.33;;;1.35;;
16314;SDS011;8266;52.150;4.768;2022-08-19T12:45:10;1.58;;;1.33;;
16314;SDS011;8266;52.150;4.768;2022-08-19T12:47:38;1.63;;;1.27;;
16314;SDS011;8266;52.150;4.768;2022-08-19T12:50:05;2.03;;;1.00;;
16314;SDS011;8266;52.150;4.768;2022-08-19T12:52:35;1.00;;;0.80;;
16314;SDS011;8266;52.150;4.768;2022-08-19T12:55:04;0.80;;;0.75;;
16314;SDS011;8266;52.150;4.768;2022-08-19T12:57:32;1.73;;;1.00;;
16314;SDS011;8266;52.150;4.768;2022-08-19T13:00:02;3.58;;;1.10;;
16314;SDS011;8266;52.150;4.768;2022-08-19T13:02:33;1.65;;;0.88;;
16314;SDS011;8266;52.150;4.768;2022-08-19T13:05:01;1.00;;;0.90;;
16314;SDS011;8266;52.150;4.768;2022-08-19T13:07:28;1.38;;;0.80;;
16314;SDS011;8266;52.150;4.768;2022-08-19T13:09:57;1.48;;;1.00;;
16314;SDS011;8266;52.150;4.768;2022-08-19T13:12:24;1.40;;;0.90;;
16314;SDS011;8266;52.150;4.768;2022-08-19T13:14:51;0.95;;;0.82;;
16314;SDS011;8266;52.150;4.768;2022-08-19T13:17:19;1.17;;;1.02;;
16314;SDS011;8266;52.150;4.768;2022-08-19T13:19:46;1.52;;;1.10;;
16314;SDS011;8266;52.150;4.768;2022-08-19T13:22:13;1.60;;;0.80;;
16314;SDS011;8266;52.150;4.768;2022-08-19T13:24:40;1.23;;;0.90;;
16314;SDS011;8266;52.150;4.768;2022-08-19T13:27:09;1.60;;;0.90;;
16314;SDS011;8266;52.150;4.768;2022-08-19T13:29:36;1.48;;;0.90;;
16314;SDS011;8266;52.150;4.768;2022-08-19T13:32:20;1.55;;;0.80;;
16314;SDS011;8266;52.150;4.768;2022-08-19T13:35:05;1.08;;;0.93;;
16314;SDS011;8266;52.150;4.768;2022-08-19T13:37:32;1.15;;;0.90;;
16314;SDS011;8266;52.150;4.768;2022-08-19T13:40:09;1.17;;;1.00;;
16314;SDS011;8266;52.150;4.768;2022-08-19T13:42:41;1.65;;;0.93;;
16314;SDS011;8266;52.150;4.768;2022-08-19T13:45:12;2.00;;;1.25;;
16314;SDS011;8266;52.150;4.768;2022-08-19T13:47:40;3.28;;;1.25;;
16314;SDS011;8266;52.150;4.768;2022-08-19T13:50:09;1.15;;;0.80;;
16314;SDS011;8266;52.150;4.768;2022-08-19T13:52:37;1.35;;;0.90;;
16314;SDS011;8266;52.150;4.768;2022-08-19T13:55:04;1.02;;;0.93;;
16314;SDS011;8266;52.150;4.768;2022-08-19T13:57:33;0.90;;;0.90;;
16314;SDS011;8266;52.150;4.768;2022-08-19T14:00:03;1.60;;;1.00;;
16314;SDS011;8266;52.150;4.768;2022-08-19T14:02:31;1.58;;;0.88;;
16314;SDS011;8266;52.150;4.768;2022-08-19T14:04:58;1.90;;;1.00;;
16314;SDS011;8266;52.150;4.768;2022-08-19T14:07:25;2.80;;;0.90;;
16314;SDS011;8266;52.150;4.768;2022-08-19T14:09:52;2.53;;;1.75;;
16314;SDS011;8266;52.150;4.768;2022-08-19T14:12:20;1.48;;;1.27;;
16314;SDS011;8266;52.150;4.768;2022-08-19T14:14:47;2.40;;;1.23;;
16314;SDS011;8266;52.150;4.768;2022-08-19T14:17:16;1.83;;;1.23;;
16314;SDS011;8266;52.150;4.768;2022-08-19T14:19:43;3.05;;;1.40;;
16314;SDS011;8266;52.150;4.768;2022-08-19T14:22:10;1.88;;;1.20;;
16314;SDS011;8266;52.150;4.768;2022-08-19T14:24:37;3.95;;;1.50;;
16314;SDS011;8266;52.150;4.768;2022-08-19T14:27:05;1.23;;;0.85;;
16314;SDS011;8266;52.150;4.768;2022-08-19T14:29:32;3.17;;;1.30;;
16314;SDS011;8266;52.150;4.768;2022-08-19T14:31:59;2.78;;;1.13;;
16314;SDS011;8266;52.150;4.768;2022-08-19T14:34:27;1.33;;;1.23;;
16314;SDS011;8266;52.150;4.768;2022-08-19T14:37:04;1.77;;;1.23;;
16314;SDS011;8266;52.150;4.768;2022-08-19T14:39:31;1.10;;;1.00;;
16314;SDS011;8266;52.150;4.768;2022-08-19T14:41:58;1.40;;;1.30;;
16314;SDS011;8266;52.150;4.768;2022-08-19T14:44:29;2.22;;;1.33;;
16314;SDS011;8266;52.150;4.768;2022-08-19T14:47:01;1.58;;;1.45;;
16314;SDS011;8266;52.150;4.768;2022-08-19T14:49:30;3.10;;;1.63;;
16314;SDS011;8266;52.150;4.768;2022-08-19T14:51:57;2.35;;;1.17;;
16314;SDS011;8266;52.150;4.768;2022-08-19T14:54:24;1.98;;;1.60;;
16314;SDS011;8266;52.150;4.768;2022-08-19T14:56:55;1.30;;;1.20;;
16314;SDS011;8266;52.150;4.768;2022-08-19T14:59:23;1.25;;;1.05;;
16314;SDS011;8266;52.150;4.768;2022-08-19T15:01:50;1.55;;;1.38;;